createdAt,value
2022-08-14T00:00:12.745Z,4.72
2022-08-14T00:02:40.787Z,5.60
2022-08-14T00:05:14.781Z,5.97
2022-08-14T00:07:42.259Z,3.80
2022-08-14T00:10:51.844Z,2.85
2022-08-14T00:12:58.427Z,3.78
2022-08-14T00:15:43.393Z,4.65
2022-08-14T00:18:14.576Z,3.47
2022-08-14T00:20:58.295Z,5.97
2022-08-14T00:23:26.624Z,6.30
2022-08-14T00:26:05.913Z,6.45
2022-08-14T00:28:36.174Z,4.82
2022-08-14T00:31:04.924Z,2.58
2022-08-14T00:33:50.616Z,3.03
2022-08-14T00:36:36.246Z,3.33
2022-08-14T00:39:09.318Z,4.57
2022-08-14T00:41:39.054Z,2.33
2022-08-14T00:44:07.297Z,3.65
2022-08-14T00:46:35.658Z,3.88
2022-08-14T00:49:03.019Z,3.95
2022-08-14T00:51:34.856Z,5.68
2022-08-14T00:54:16.951Z,3.58
2022-08-14T00:56:49.145Z,1.58
2022-08-14T00:59:16.453Z,6.03
2022-08-14T01:01:44.004Z,2.92
2022-08-14T01:04:37.238Z,4.07
2022-08-14T01:07:00.777Z,1.60
2022-08-14T01:09:32.548Z,4.10
2022-08-14T01:12:03.175Z,6.47
2022-08-14T01:14:31.045Z,4.45
2022-08-14T01:16:59.968Z,8.52
2022-08-14T01:19:46.737Z,2.15
2022-08-14T01:22:18.582Z,3.97
2022-08-14T01:24:47.071Z,4.28
2022-08-14T01:27:16.120Z,2.95
2022-08-14T01:30:01.451Z,2.33
2022-08-14T01:32:30.757Z,3.08
2022-08-14T01:35:17.700Z,3.38
2022-08-14T01:37:56.071Z,2.08
2022-08-14T01:40:36.336Z,2.53
2022-08-14T01:43:18.662Z,2.38
2022-08-14T01:46:05.994Z,2.25
2022-08-14T01:48:37.219Z,3.38
2022-08-14T01:51:05.566Z,3.22
2022-08-14T01:53:54.746Z,2.58
2022-08-14T01:56:37.431Z,4.20
2022-08-14T01:59:06.545Z,2.22
2022-08-14T02:01:37.945Z,3.80
2022-08-14T02:04:40.686Z,2.28
2022-08-14T02:06:56.592Z,8.57
2022-08-14T02:09:23.942Z,3.38
2022-08-14T02:11:54.437Z,3.95
2022-08-14T02:14:31.699Z,3.50
2022-08-14T02:17:00.438Z,2.67
2022-08-14T02:19:31.646Z,4.88
2022-08-14T02:22:02.850Z,4.43
2022-08-14T02:24:39.349Z,4.68
2022-08-14T02:28:26.018Z,2.85
2022-08-14T02:30:00.803Z,4.13
2022-08-14T02:32:36.578Z,1.65
2022-08-14T02:35:17.799Z,3.05
2022-08-14T02:37:49.603Z,2.60
2022-08-14T02:40:18.515Z,4.30
2022-08-14T02:42:54.576Z,3.42
2022-08-14T02:45:24.731Z,4.15
2022-08-14T02:47:53.948Z,7.45
2022-08-14T02:52:56.470Z,3.08
2022-08-14T02:55:25.358Z,4.57
2022-08-14T02:57:58.166Z,4.88
2022-08-14T03:00:33.081Z,4.07
2022-08-14T03:03:07.516Z,3.50
2022-08-14T03:05:36.089Z,2.25
2022-08-14T03:08:15.074Z,2.38
2022-08-14T03:10:48.986Z,2.90
2022-08-14T03:13:19.526Z,4.47
2022-08-14T03:15:58.063Z,2.25
2022-08-14T03:18:31.697Z,2.95
2022-08-14T03:21:03.230Z,4.82
2022-08-14T03:23:37.709Z,1.88
2022-08-14T03:26:08.592Z,3.53
2022-08-14T03:28:36.719Z,5.40
2022-08-14T03:31:08.374Z,2.78
2022-08-14T03:33:41.091Z,9.68
2022-08-14T03:37:39.214Z,3.63
2022-08-14T03:39:13.886Z,2.58
2022-08-14T03:41:47.863Z,3.53
2022-08-14T03:45:19.030Z,1.45
2022-08-14T03:47:02.937Z,5.05
2022-08-14T03:49:30.729Z,3.42
2022-08-14T03:52:00.653Z,7.63
2022-08-14T03:54:28.819Z,2.88
2022-08-14T03:57:02.435Z,4.40
2022-08-14T03:59:30.885Z,2.92
2022-08-14T04:02:02.247Z,1.55
2022-08-14T04:04:33.393Z,3.67
2022-08-14T04:07:01.200Z,4.75
2022-08-14T04:09:29.337Z,2.08
2022-08-14T04:11:58.057Z,2.63
2022-08-14T04:14:31.440Z,1.90
2022-08-14T04:17:04.887Z,2.50
2022-08-14T04:19:37.882Z,5.63
2022-08-14T04:22:06.281Z,3.88
2022-08-14T04:24:37.877Z,1.60
2022-08-14T04:27:11.505Z,3.13
2022-08-14T04:29:39.647Z,1.40
2022-08-14T04:33:01.948Z,1.80
2022-08-14T04:34:58.043Z,7.00
2022-08-14T04:37:45.552Z,2.75
2022-08-14T04:40:32.792Z,2.45
2022-08-14T04:43:21.280Z,2.88
2022-08-14T04:45:50.977Z,1.50
2022-08-14T04:48:38.712Z,1.40
2022-08-14T04:51:15.166Z,1.80
2022-08-14T04:53:44.629Z,7.22
2022-08-14T04:56:31.602Z,3.10
2022-08-14T04:59:02.286Z,6.25
2022-08-14T05:01:33.908Z,1.58
2022-08-14T05:04:08.272Z,3.08
2022-08-14T05:06:38.352Z,3.80
2022-08-14T05:09:11.633Z,1.58
2022-08-14T05:11:41.898Z,2.22
2022-08-14T05:14:17.034Z,2.08
2022-08-14T05:17:01.554Z,4.82
2022-08-14T05:19:31.850Z,2.00
2022-08-14T05:22:16.624Z,3.88
2022-08-14T05:24:48.664Z,4.47
2022-08-14T05:27:22.890Z,3.50
2022-08-14T05:29:51.613Z,2.47
2022-08-14T05:32:18.981Z,2.40
2022-08-14T05:34:47.700Z,2.35
2022-08-14T05:37:15.485Z,3.38
2022-08-14T05:39:43.070Z,3.35
2022-08-14T05:42:22.334Z,6.68
2022-08-14T05:44:55.903Z,2.42
2022-08-14T05:47:23.945Z,4.60
2022-08-14T05:49:51.683Z,4.10
2022-08-14T05:52:38.617Z,6.20
2022-08-14T05:55:08.682Z,5.32
2022-08-14T05:57:36.227Z,2.28
2022-08-14T06:00:04.134Z,4.85
2022-08-14T06:02:33.033Z,1.35
2022-08-14T06:05:02.603Z,5.03
2022-08-14T06:07:30.285Z,2.20
2022-08-14T06:10:03.835Z,3.25
2022-08-14T06:12:56.454Z,1.83
2022-08-14T06:15:19.002Z,1.05
2022-08-14T06:17:58.441Z,2.42
2022-08-14T06:20:28.098Z,4.15
2022-08-14T06:22:56.904Z,1.88
2022-08-14T06:25:25.068Z,4.60
2022-08-14T06:27:53.598Z,4.78
2022-08-14T06:30:23.032Z,1.17
2022-08-14T06:32:52.754Z,1.83
2022-08-14T06:35:22.904Z,3.40
2022-08-14T06:37:54.877Z,6.13
2022-08-14T06:42:55.670Z,5.10
2022-08-14T06:45:26.192Z,5.57
2022-08-14T06:47:55.357Z,1.00
2022-08-14T06:52:56.471Z,2.95
2022-08-14T06:55:27.668Z,3.75
2022-08-14T06:57:55.363Z,3.20
2022-08-14T07:00:27.077Z,2.38
2022-08-14T07:03:16.642Z,3.92
2022-08-14T07:05:58.066Z,1.20
2022-08-14T07:08:31.494Z,2.67
2022-08-14T07:11:01.240Z,3.70
2022-08-14T07:13:30.546Z,1.30
2022-08-14T07:15:58.852Z,1.48
2022-08-14T07:18:32.902Z,1.60
2022-08-14T07:21:01.460Z,4.50
2022-08-14T07:23:31.055Z,4.00
2022-08-14T07:25:59.374Z,2.30
2022-08-14T07:28:27.757Z,2.55
2022-08-14T07:31:05.019Z,2.78
2022-08-14T07:33:41.874Z,2.65
2022-08-14T07:36:27.611Z,2.47
2022-08-14T07:38:58.369Z,2.85
2022-08-14T07:41:31.250Z,2.75
2022-08-14T07:44:28.985Z,2.45
2022-08-14T07:46:49.938Z,3.67
2022-08-14T07:49:18.236Z,9.32
2022-08-14T07:51:49.413Z,5.13
2022-08-14T07:54:23.622Z,3.07
2022-08-14T07:56:59.719Z,2.15
2022-08-14T07:59:41.020Z,3.08
2022-08-14T08:02:19.497Z,2.42
2022-08-14T08:04:58.941Z,1.92
2022-08-14T08:07:29.412Z,2.85
2022-08-14T08:09:58.041Z,3.70
2022-08-14T08:12:30.890Z,14.25
2022-08-14T08:15:03.462Z,4.28
2022-08-14T08:17:38.371Z,2.10
2022-08-14T08:20:06.934Z,3.45
2022-08-14T08:22:37.880Z,2.63
2022-08-14T08:25:13.759Z,4.40
2022-08-14T08:27:44.846Z,4.65
2022-08-14T08:30:12.742Z,8.52
2022-08-14T08:32:41.443Z,1.85
2022-08-14T08:35:22.294Z,2.90
2022-08-14T08:38:01.010Z,4.30
2022-08-14T08:40:32.468Z,7.60
2022-08-14T08:43:00.369Z,2.30
2022-08-14T08:45:29.242Z,1.73
2022-08-14T08:47:56.586Z,2.25
2022-08-14T08:53:09.299Z,3.60
2022-08-14T08:55:39.447Z,10.15
2022-08-14T08:58:20.024Z,4.15
2022-08-14T09:00:54.580Z,6.20
2022-08-14T09:03:25.543Z,1.85
2022-08-14T09:05:56.223Z,4.82
2022-08-14T09:08:32.529Z,2.05
2022-08-14T09:11:18.957Z,3.42
2022-08-14T09:13:50.513Z,2.20
2022-08-14T09:16:21.122Z,2.78
2022-08-14T09:18:49.268Z,4.03
2022-08-14T09:21:16.881Z,3.28
2022-08-14T09:24:26.228Z,3.85
2022-08-14T09:26:32.236Z,1.23
2022-08-14T09:29:00.847Z,1.52
2022-08-14T09:31:43.188Z,3.55
2022-08-14T09:34:35.505Z,3.85
2022-08-14T09:37:10.038Z,1.55
2022-08-14T09:40:03.877Z,3.00
2022-08-14T09:42:34.349Z,4.85
2022-08-14T09:45:13.026Z,3.38
2022-08-14T09:47:53.470Z,2.08
2022-08-14T09:50:33.003Z,1.70
2022-08-14T09:53:05.272Z,3.15
2022-08-14T09:55:41.869Z,1.92
2022-08-14T09:58:19.693Z,1.17
2022-08-14T10:01:06.189Z,1.42
2022-08-14T10:03:35.283Z,8.23
2022-08-14T10:06:13.672Z,1.10
2022-08-14T10:08:44.377Z,1.17
2022-08-14T10:11:19.558Z,2.33
2022-08-14T10:13:55.888Z,4.28
2022-08-14T10:16:29.139Z,1.10
2022-08-14T10:19:05.283Z,3.00
2022-08-14T10:21:38.846Z,4.20
2022-08-14T10:24:36.472Z,3.92
2022-08-14T10:29:38.386Z,3.72
2022-08-14T10:32:18.031Z,2.95
2022-08-14T10:35:05.422Z,3.63
2022-08-14T10:37:39.991Z,1.60
2022-08-14T10:40:36.764Z,5.38
2022-08-14T10:42:56.711Z,1.90
2022-08-14T10:45:35.765Z,3.20
2022-08-14T10:48:34.467Z,2.05
2022-08-14T10:53:39.099Z,4.88
2022-08-14T10:56:21.745Z,2.63
2022-08-14T10:59:04.632Z,3.35
2022-08-14T11:01:38.390Z,2.92
2022-08-14T11:04:20.308Z,2.40
2022-08-14T11:06:56.865Z,5.35
2022-08-14T11:09:25.989Z,1.77
2022-08-14T11:12:34.616Z,5.10
2022-08-14T11:14:51.437Z,4.32
2022-08-14T11:17:31.857Z,3.45
2022-08-14T11:20:00.491Z,1.52
2022-08-14T11:22:52.616Z,4.05
2022-08-14T11:25:20.421Z,1.85
2022-08-14T11:27:49.069Z,8.23
2022-08-14T11:30:51.338Z,6.07
2022-08-14T11:33:07.617Z,4.97
2022-08-14T11:35:47.453Z,5.22
2022-08-14T11:38:16.406Z,4.20
2022-08-14T11:40:47.169Z,7.00
2022-08-14T11:43:15.501Z,4.05
2022-08-14T11:45:45.861Z,2.80
2022-08-14T11:49:02.642Z,7.43
2022-08-14T11:51:01.994Z,6.00
2022-08-14T11:53:31.298Z,6.93
2022-08-14T11:56:02.307Z,6.78
2022-08-14T11:58:34.982Z,4.95
2022-08-14T12:01:04.323Z,5.70
2022-08-14T12:03:46.649Z,6.38
2022-08-14T12:06:29.064Z,6.93
2022-08-14T12:09:12.056Z,3.80
2022-08-14T12:11:47.254Z,3.33
2022-08-14T12:14:29.881Z,6.20
2022-08-14T12:17:11.860Z,4.43
2022-08-14T12:19:56.743Z,3.35
2022-08-14T12:22:34.325Z,4.93
2022-08-14T12:25:05.966Z,5.32
2022-08-14T12:27:52.831Z,2.65
2022-08-14T12:30:43.031Z,4.25
2022-08-14T12:33:33.854Z,6.70
2022-08-14T12:36:08.046Z,3.42
2022-08-14T12:38:43.581Z,3.85
2022-08-14T12:41:21.056Z,2.47
2022-08-14T12:43:55.591Z,3.90
2022-08-14T12:46:27.280Z,2.53
2022-08-14T12:48:56.512Z,3.05
2022-08-14T12:51:27.312Z,4.50
2022-08-14T12:53:56.644Z,1.75
2022-08-14T12:59:03.154Z,2.72
2022-08-14T13:01:31.818Z,2.28
2022-08-14T13:04:21.534Z,2.63
2022-08-14T13:06:50.692Z,2.95
2022-08-14T13:09:18.993Z,5.25
2022-08-14T13:11:59.261Z,3.17
2022-08-14T13:17:07.186Z,1.90
2022-08-14T13:19:35.345Z,2.60
2022-08-14T13:22:09.763Z,2.83
2022-08-14T13:24:39.869Z,2.53
2022-08-14T13:27:10.075Z,4.53
2022-08-14T13:29:47.161Z,0.70
2022-08-14T13:32:15.250Z,1.15
2022-08-14T13:34:45.537Z,3.38
2022-08-14T13:37:15.119Z,3.40
2022-08-14T13:39:56.168Z,4.65
2022-08-14T13:42:30.230Z,3.35
2022-08-14T13:44:59.018Z,4.13
2022-08-14T13:47:30.583Z,5.93
2022-08-14T13:50:02.713Z,1.63
2022-08-14T13:52:52.766Z,4.03
2022-08-14T13:55:28.000Z,2.35
2022-08-14T13:58:03.675Z,4.25
2022-08-14T14:00:35.690Z,1.75
2022-08-14T14:03:20.241Z,3.25
2022-08-14T14:05:56.077Z,1.50
2022-08-14T14:08:45.697Z,6.90
2022-08-14T14:11:15.862Z,8.55
2022-08-14T14:13:45.347Z,2.10
2022-08-14T14:16:15.363Z,1.90
2022-08-14T14:18:52.314Z,1.30
2022-08-14T14:21:21.489Z,1.30
2022-08-14T14:23:49.384Z,3.38
2022-08-14T14:26:23.233Z,0.95
2022-08-14T14:28:52.970Z,5.25
2022-08-14T14:31:30.341Z,2.05
2022-08-14T14:34:07.442Z,1.75
2022-08-14T14:36:41.677Z,1.95
2022-08-14T14:39:11.151Z,3.75
2022-08-14T14:41:43.757Z,3.17
2022-08-14T14:44:13.667Z,2.40
2022-08-14T14:46:44.908Z,5.55
2022-08-14T14:49:14.562Z,2.85
2022-08-14T14:51:46.936Z,7.93
2022-08-14T14:54:31.095Z,7.03
2022-08-14T14:57:09.256Z,2.60
2022-08-14T14:59:38.048Z,4.85
2022-08-14T15:02:07.702Z,3.85
2022-08-14T15:04:43.891Z,8.65
2022-08-14T15:07:12.528Z,1.98
2022-08-14T15:09:41.045Z,5.72
2022-08-14T15:12:28.022Z,5.13
2022-08-14T15:14:58.122Z,3.88
2022-08-14T15:17:41.466Z,3.38
2022-08-14T15:20:16.947Z,4.65
2022-08-14T15:22:51.386Z,8.70
2022-08-14T15:25:19.120Z,3.00
2022-08-14T15:27:51.097Z,2.55
2022-08-14T15:30:24.466Z,3.08
2022-08-14T15:32:59.738Z,5.15
2022-08-14T15:35:29.562Z,6.07
2022-08-14T15:37:57.121Z,5.35
2022-08-14T15:40:24.555Z,4.10
2022-08-14T15:42:52.040Z,4.90
2022-08-14T15:45:21.550Z,3.75
2022-08-14T15:47:51.042Z,3.10
2022-08-14T15:50:19.406Z,5.13
2022-08-14T15:52:47.382Z,3.58
2022-08-14T15:55:16.201Z,3.40
2022-08-14T15:58:02.071Z,6.10
2022-08-14T16:00:52.000Z,11.75
2022-08-14T16:03:27.482Z,3.72
2022-08-14T16:06:02.825Z,6.70
2022-08-14T16:08:30.879Z,1.85
2022-08-14T16:11:02.128Z,3.00
2022-08-14T16:13:39.787Z,2.63
2022-08-14T16:16:49.786Z,4.55
2022-08-14T16:19:00.854Z,1.55
2022-08-14T16:21:29.568Z,1.65
2022-08-14T16:24:00.637Z,4.32
2022-08-14T16:26:32.974Z,3.97
2022-08-14T16:29:09.107Z,4.15
2022-08-14T16:31:37.014Z,2.42
2022-08-14T16:34:46.783Z,2.13
2022-08-14T16:36:54.478Z,4.35
2022-08-14T16:39:22.062Z,3.15
2022-08-14T16:41:51.213Z,1.27
2022-08-14T16:44:31.980Z,2.42
2022-08-14T16:47:02.725Z,3.75
2022-08-14T16:50:03.211Z,1.95
2022-08-14T16:52:26.314Z,5.95
2022-08-14T16:55:11.070Z,3.13
2022-08-14T16:57:51.867Z,1.30
2022-08-14T17:00:43.466Z,2.72
2022-08-14T17:03:12.993Z,2.22
2022-08-14T17:05:43.412Z,6.20
2022-08-14T17:08:32.178Z,7.20
2022-08-14T17:11:00.797Z,4.80
2022-08-14T17:13:59.383Z,3.60
2022-08-14T17:16:23.965Z,4.40
2022-08-14T17:19:00.663Z,9.02
2022-08-14T17:21:41.619Z,2.10
2022-08-14T17:24:56.044Z,2.08
2022-08-14T17:27:05.289Z,3.65
2022-08-14T17:29:34.304Z,4.20
2022-08-14T17:32:28.377Z,6.20
2022-08-14T17:35:01.604Z,4.30
2022-08-14T17:37:35.690Z,4.45
2022-08-14T17:40:15.006Z,5.43
2022-08-14T17:42:51.800Z,5.25
2022-08-14T17:45:27.054Z,4.07
2022-08-14T17:47:56.989Z,7.70
2022-08-14T17:50:58.987Z,2.90
2022-08-14T17:53:30.515Z,3.17
2022-08-14T17:56:01.064Z,2.72
2022-08-14T17:58:30.303Z,4.70
2022-08-14T18:01:06.373Z,8.55
2022-08-14T18:03:44.871Z,5.25
2022-08-14T18:06:39.329Z,5.35
2022-08-14T18:09:24.887Z,7.15
2022-08-14T18:11:57.041Z,7.15
2022-08-14T18:14:32.685Z,15.77
2022-08-14T18:17:12.840Z,6.75
2022-08-14T18:19:44.716Z,14.82
2022-08-14T18:22:30.979Z,5.78
2022-08-14T18:25:02.328Z,4.25
2022-08-14T18:27:36.347Z,3.45
2022-08-14T18:30:33.068Z,9.55
2022-08-14T18:32:55.491Z,3.30
2022-08-14T18:35:45.297Z,3.63
2022-08-14T18:38:41.076Z,3.75
2022-08-14T18:41:37.093Z,3.67
2022-08-14T18:44:10.031Z,7.85
2022-08-14T18:47:00.754Z,6.65
2022-08-14T18:49:33.425Z,6.68
2022-08-14T18:52:19.011Z,4.70
2022-08-14T18:54:48.440Z,4.60
2022-08-14T18:57:20.272Z,6.25
2022-08-14T18:59:48.745Z,4.82
2022-08-14T19:02:30.702Z,9.63
2022-08-14T19:04:59.797Z,6.22
2022-08-14T19:07:33.318Z,4.53
2022-08-14T19:10:17.064Z,6.38
2022-08-14T19:12:53.578Z,3.42
2022-08-14T19:15:25.721Z,4.32
2022-08-14T19:18:10.841Z,10.90
2022-08-14T19:20:49.027Z,5.68
2022-08-14T19:23:22.854Z,2.85
2022-08-14T19:25:54.262Z,2.70
2022-08-14T19:28:31.046Z,4.50
2022-08-14T19:31:21.141Z,1.92
2022-08-14T19:33:50.989Z,3.30
2022-08-14T19:36:28.924Z,2.58
2022-08-14T19:39:04.231Z,4.85
2022-08-14T19:41:33.983Z,2.45
2022-08-14T19:44:10.617Z,4.68
2022-08-14T19:47:01.323Z,4.68
2022-08-14T19:50:08.654Z,2.30
2022-08-14T19:52:22.261Z,1.90
2022-08-14T19:54:51.363Z,3.47
2022-08-14T19:57:25.718Z,3.20
2022-08-14T20:00:29.561Z,3.85
2022-08-14T20:03:09.961Z,3.30
2022-08-14T20:05:45.449Z,6.75
2022-08-14T20:10:58.746Z,2.95
2022-08-14T20:11:14.313Z,3.15
2022-08-14T20:14:20.773Z,3.17
2022-08-14T20:17:05.593Z,1.92
2022-08-14T20:19:37.740Z,2.20
2022-08-14T20:22:38.804Z,4.78
2022-08-14T20:27:34.896Z,4.43
2022-08-14T20:30:33.464Z,1.65
2022-08-14T20:33:07.639Z,5.53
2022-08-14T20:38:29.425Z,3.63
2022-08-14T20:41:09.447Z,5.80
2022-08-14T20:43:57.270Z,3.95
2022-08-14T20:46:33.690Z,2.05
2022-08-14T20:49:08.545Z,1.50
2022-08-14T20:51:54.566Z,2.97
2022-08-14T20:54:34.391Z,2.08
2022-08-14T20:57:07.773Z,1.83
2022-08-14T20:59:43.646Z,2.00
2022-08-14T21:02:46.774Z,8.50
2022-08-14T21:05:33.545Z,4.20
2022-08-14T21:08:08.343Z,4.05
2022-08-14T21:10:49.553Z,3.60
2022-08-14T21:14:08.987Z,3.75
2022-08-14T21:16:04.968Z,6.57
2022-08-14T21:18:55.879Z,4.63
2022-08-14T21:21:40.856Z,4.88
2022-08-14T21:24:38.580Z,4.63
2022-08-14T21:27:02.129Z,5.18
2022-08-14T21:29:32.004Z,10.30
2022-08-14T21:31:59.718Z,5.65
2022-08-14T21:34:32.500Z,4.93
2022-08-14T21:37:07.911Z,5.68
2022-08-14T21:39:37.092Z,9.85
2022-08-14T21:42:06.080Z,9.30
2022-08-14T21:44:43.097Z,8.15
2022-08-14T21:47:12.173Z,8.30
2022-08-14T21:49:43.185Z,9.38
2022-08-14T21:52:49.422Z,10.73
2022-08-14T21:55:09.041Z,17.42
2022-08-14T21:58:51.270Z,10.05
2022-08-14T22:00:35.584Z,14.35
2022-08-14T22:03:06.258Z,14.10
2022-08-14T22:05:37.688Z,12.02
2022-08-14T22:08:06.558Z,13.68
2022-08-14T22:10:34.869Z,14.02
2022-08-14T22:13:02.415Z,16.00
2022-08-14T22:15:32.817Z,17.42
2022-08-14T22:18:02.101Z,19.75
2022-08-14T22:20:29.974Z,11.98
2022-08-14T22:22:58.249Z,14.52
2022-08-14T22:25:33.486Z,13.95
2022-08-14T22:28:02.136Z,13.55
2022-08-14T22:30:29.816Z,20.17
2022-08-14T22:33:00.053Z,18.13
2022-08-14T22:35:28.212Z,22.58
2022-08-14T22:38:36.587Z,23.42
2022-08-14T22:41:04.486Z,13.70
2022-08-14T22:43:35.042Z,19.52
2022-08-14T22:46:03.413Z,22.83
2022-08-14T22:48:41.963Z,19.00
2022-08-14T22:51:09.232Z,24.95
2022-08-14T22:53:40.832Z,17.60
2022-08-14T22:56:20.110Z,21.42
2022-08-14T22:58:54.073Z,20.50
2022-08-14T23:03:50.226Z,22.35
2022-08-14T23:07:03.049Z,19.55
2022-08-14T23:09:35.236Z,26.65
2022-08-14T23:11:54.180Z,25.33
2022-08-14T23:14:26.746Z,26.38
2022-08-14T23:16:57.489Z,20.73
2022-08-14T23:19:33.574Z,17.80
2022-08-14T23:22:02.616Z,22.27
2022-08-14T23:24:31.355Z,22.10
2022-08-14T23:26:58.621Z,30.30
2022-08-14T23:29:27.048Z,20.70
2022-08-14T23:31:59.219Z,28.08
2022-08-14T23:34:29.515Z,22.42
2022-08-14T23:36:58.137Z,27.70
2022-08-14T23:39:32.519Z,22.17
2022-08-14T23:42:06.198Z,27.25
2022-08-14T23:44:37.588Z,28.20
2022-08-14T23:47:11.968Z,26.08
2022-08-14T23:50:01.149Z,20.70
2022-08-14T23:52:56.282Z,21.83
2022-08-14T23:55:22.699Z,24.83
2022-08-14T23:57:57.891Z,22.45
